createdAt,value
2022-11-25T00:01:51.825Z,88.41
2022-11-25T00:04:20.101Z,88.13
2022-11-25T00:06:48.260Z,88.11
2022-11-25T00:09:16.342Z,88.29
2022-11-25T00:11:44.894Z,88.36
2022-11-25T00:14:15.041Z,88.49
2022-11-25T00:16:48.153Z,88.51
2022-11-25T00:19:17.567Z,88.44
2022-11-25T00:21:45.996Z,88.45
2022-11-25T00:24:15.912Z,88.32
2022-11-25T00:26:44.292Z,88.27
2022-11-25T00:29:14.227Z,88.33
2022-11-25T00:31:42.929Z,88.33
2022-11-25T00:34:14.320Z,88.26
2022-11-25T00:36:43.032Z,88.12
2022-11-25T00:39:13.963Z,88.19
2022-11-25T00:42:03.163Z,88.13
2022-11-25T00:44:42.245Z,88.03
2022-11-25T00:47:16.790Z,88.06
2022-11-25T00:49:50.624Z,87.99
2022-11-25T00:52:27.194Z,88.02
2022-11-25T00:54:55.326Z,88.06
2022-11-25T00:57:24.204Z,88.09
2022-11-25T00:59:52.843Z,88.08
2022-11-25T01:02:23.509Z,88.06
2022-11-25T01:04:51.762Z,88.01
2022-11-25T01:07:19.986Z,88.06
2022-11-25T01:09:49.378Z,88.06
2022-11-25T01:12:17.718Z,88.06
2022-11-25T01:14:46.010Z,87.97
2022-11-25T01:17:15.968Z,87.94
2022-11-25T01:19:44.081Z,87.89
2022-11-25T01:22:12.441Z,87.94
2022-11-25T01:24:44.112Z,88.01
2022-11-25T01:27:12.174Z,87.88
2022-11-25T01:29:41.951Z,88.00
2022-11-25T01:32:10.443Z,88.09
2022-11-25T01:34:40.050Z,88.08
2022-11-25T01:37:08.424Z,87.87
2022-11-25T01:39:36.750Z,87.86
2022-11-25T01:42:04.979Z,87.91
2022-11-25T01:44:36.540Z,87.93
2022-11-25T01:47:23.570Z,88.13
2022-11-25T01:50:02.406Z,88.13
2022-11-25T01:52:46.087Z,88.14
2022-11-25T01:55:17.254Z,88.26
2022-11-25T01:58:00.788Z,88.39
2022-11-25T02:04:19.471Z,88.45
2022-11-25T02:06:53.920Z,88.48
2022-11-25T02:09:23.202Z,88.55
2022-11-25T02:11:52.080Z,88.77
2022-11-25T02:14:22.647Z,88.80
2022-11-25T02:16:53.816Z,88.64
2022-11-25T02:19:39.674Z,88.67
2022-11-25T02:22:15.993Z,88.79
2022-11-25T02:24:46.865Z,88.70
2022-11-25T02:27:15.259Z,88.78
2022-11-25T02:29:44.659Z,88.67
2022-11-25T02:32:13.114Z,88.44
2022-11-25T02:34:48.167Z,88.16
2022-11-25T02:37:19.651Z,88.32
2022-11-25T02:39:50.150Z,88.71
2022-11-25T02:42:21.602Z,88.92
2022-11-25T02:44:50.040Z,88.83
2022-11-25T02:47:18.185Z,88.35
2022-11-25T02:49:46.479Z,88.30
2022-11-25T02:52:14.640Z,88.49
2022-11-25T02:54:43.400Z,88.49
2022-11-25T02:57:11.833Z,88.86
2022-11-25T02:59:40.073Z,89.23
2022-11-25T03:02:08.517Z,89.54
2022-11-25T03:04:37.706Z,89.53
2022-11-25T03:07:06.189Z,89.73
2022-11-25T03:09:35.011Z,89.85
2022-11-25T03:12:21.494Z,89.95
2022-11-25T03:14:54.256Z,89.91
2022-11-25T03:17:22.419Z,89.90
2022-11-25T03:19:50.621Z,89.67
2022-11-25T03:22:18.851Z,89.49
2022-11-25T03:24:46.974Z,89.31
2022-11-25T03:27:15.171Z,89.22
2022-11-25T03:29:43.812Z,89.09
2022-11-25T03:32:12.297Z,88.87
2022-11-25T03:34:40.633Z,88.88
2022-11-25T03:37:09.436Z,88.98
2022-11-25T03:39:39.331Z,89.07
2022-11-25T03:42:08.114Z,89.21
2022-11-25T03:44:36.780Z,89.14
2022-11-25T03:47:05.441Z,89.00
2022-11-25T03:49:33.971Z,88.92
2022-11-25T03:52:02.273Z,88.81
2022-11-25T03:54:30.484Z,88.91
2022-11-25T03:57:15.765Z,89.06
2022-11-25T03:59:44.137Z,88.96
2022-11-25T04:02:12.575Z,89.03
2022-11-25T04:04:41.182Z,89.05
2022-11-25T04:07:10.071Z,89.09
2022-11-25T04:09:38.429Z,88.89
2022-11-25T04:12:26.399Z,88.84
2022-11-25T04:14:57.076Z,88.77
2022-11-25T04:17:25.242Z,88.74
2022-11-25T04:19:53.437Z,88.75
2022-11-25T04:22:21.920Z,88.74
2022-11-25T04:24:50.641Z,88.60
2022-11-25T04:27:23.174Z,88.65
2022-11-25T04:29:52.492Z,88.85
2022-11-25T04:32:21.231Z,88.79
2022-11-25T04:34:50.360Z,88.88
2022-11-25T04:37:19.212Z,89.08
2022-11-25T04:39:47.325Z,89.03
2022-11-25T04:42:34.805Z,88.87
2022-11-25T04:45:33.353Z,89.03
2022-11-25T04:48:01.526Z,89.03
2022-11-25T04:50:29.862Z,89.10
2022-11-25T04:53:09.088Z,89.23
2022-11-25T04:55:37.543Z,89.16
2022-11-25T04:58:07.974Z,88.97
2022-11-25T05:00:36.957Z,89.07
2022-11-25T05:03:06.819Z,88.96
2022-11-25T05:05:39.438Z,88.86
2022-11-25T05:08:07.719Z,88.89
2022-11-25T05:10:36.509Z,89.10
2022-11-25T05:13:04.826Z,88.94
2022-11-25T05:15:33.555Z,88.97
2022-11-25T05:18:02.219Z,89.01
2022-11-25T05:20:50.806Z,89.23
2022-11-25T05:23:20.615Z,89.16
2022-11-25T05:25:49.667Z,89.18
2022-11-25T05:28:31.212Z,89.18
2022-11-25T05:30:59.615Z,88.99
2022-11-25T05:33:27.824Z,89.14
2022-11-25T05:36:02.375Z,89.13
2022-11-25T05:38:45.295Z,88.98
2022-11-25T05:41:16.414Z,88.97
2022-11-25T05:43:47.245Z,89.14
2022-11-25T05:46:15.733Z,89.28
2022-11-25T05:48:56.457Z,89.11
2022-11-25T05:51:26.350Z,88.97
2022-11-25T05:53:56.321Z,89.04
2022-11-25T05:56:27.840Z,89.20
2022-11-25T05:59:22.088Z,89.12
2022-11-25T06:02:01.256Z,89.35
2022-11-25T06:04:31.009Z,89.25
2022-11-25T06:06:59.250Z,89.16
2022-11-25T06:09:27.513Z,89.11
2022-11-25T06:11:57.017Z,89.12
2022-11-25T06:14:25.160Z,89.07
2022-11-25T06:16:53.702Z,88.95
2022-11-25T06:19:38.054Z,88.93
2022-11-25T06:22:06.438Z,88.81
2022-11-25T06:24:36.738Z,88.83
2022-11-25T06:27:07.596Z,88.76
2022-11-25T06:29:36.142Z,88.85
2022-11-25T06:32:04.475Z,88.99
2022-11-25T06:34:43.031Z,89.03
2022-11-25T06:37:27.987Z,89.14
2022-11-25T06:39:56.450Z,89.21
2022-11-25T06:42:24.839Z,89.30
2022-11-25T06:44:53.170Z,89.30
2022-11-25T06:47:21.580Z,89.26
2022-11-25T06:49:49.839Z,89.26
2022-11-25T06:52:18.038Z,89.14
2022-11-25T06:54:46.399Z,89.13
2022-11-25T06:57:17.995Z,88.97
2022-11-25T06:59:46.296Z,88.83
2022-11-25T07:02:15.063Z,88.57
2022-11-25T07:04:43.464Z,88.61
2022-11-25T07:07:11.895Z,88.79
2022-11-25T07:09:40.343Z,88.98
2022-11-25T07:12:08.668Z,88.74
2022-11-25T07:14:36.956Z,88.66
2022-11-25T07:17:11.563Z,88.66
2022-11-25T07:19:40.456Z,88.59
2022-11-25T07:22:08.839Z,88.64
2022-11-25T07:24:37.443Z,88.70
2022-11-25T07:27:06.996Z,88.63
2022-11-25T07:30:18.827Z,88.61
2022-11-25T07:32:26.243Z,88.60
2022-11-25T07:34:54.470Z,88.47
2022-11-25T07:37:22.598Z,88.60
2022-11-25T07:39:50.773Z,88.42
2022-11-25T07:42:19.080Z,88.32
2022-11-25T07:44:47.161Z,88.43
2022-11-25T07:47:47.992Z,88.33
2022-11-25T07:50:16.240Z,88.38
2022-11-25T07:52:44.381Z,88.39
2022-11-25T07:55:12.667Z,88.34
2022-11-25T07:57:40.752Z,88.12
2022-11-25T08:00:09.726Z,87.91
2022-11-25T08:02:40.789Z,87.91
2022-11-25T08:05:09.516Z,87.99
2022-11-25T08:07:37.816Z,87.85
2022-11-25T08:10:06.671Z,87.82
2022-11-25T08:12:34.922Z,87.81
2022-11-25T08:15:03.053Z,87.66
2022-11-25T08:17:31.839Z,87.60
2022-11-25T08:20:00.171Z,87.60
2022-11-25T08:22:28.386Z,87.40
2022-11-25T08:24:56.780Z,87.22
2022-11-25T08:27:25.063Z,87.24
2022-11-25T08:29:53.290Z,87.04
2022-11-25T08:32:21.832Z,86.86
2022-11-25T08:34:49.880Z,86.65
2022-11-25T08:37:18.049Z,86.69
2022-11-25T08:39:54.004Z,86.68
2022-11-25T08:42:22.486Z,86.38
2022-11-25T08:44:55.590Z,86.36
2022-11-25T08:47:24.604Z,85.94
2022-11-25T08:49:54.021Z,86.16
2022-11-25T08:52:22.989Z,86.07
2022-11-25T08:54:51.072Z,85.88
2022-11-25T08:57:19.228Z,86.02
2022-11-25T08:59:47.593Z,85.78
2022-11-25T09:02:17.523Z,85.85
2022-11-25T09:04:45.783Z,86.09
2022-11-25T09:07:14.095Z,86.04
2022-11-25T09:09:42.420Z,85.87
2022-11-25T09:12:10.708Z,85.83
2022-11-25T09:14:40.654Z,85.76
2022-11-25T09:17:10.675Z,85.73
2022-11-25T09:19:39.360Z,85.70
2022-11-25T09:22:08.290Z,85.84
2022-11-25T09:24:36.648Z,85.31
2022-11-25T09:27:05.196Z,85.40
2022-11-25T09:29:33.450Z,85.57
2022-11-25T09:32:01.740Z,85.69
2022-11-25T09:34:29.918Z,85.64
2022-11-25T09:36:58.303Z,85.64
2022-11-25T09:39:29.695Z,85.39
2022-11-25T09:42:31.612Z,85.45
2022-11-25T09:45:33.635Z,85.68
2022-11-25T09:48:14.168Z,85.45
2022-11-25T09:51:00.663Z,85.41
2022-11-25T09:53:50.424Z,85.74
2022-11-25T09:56:50.668Z,85.78
2022-11-25T09:59:23.854Z,85.64
2022-11-25T10:02:33.020Z,85.68
2022-11-25T10:05:16.549Z,85.75
2022-11-25T10:07:49.947Z,85.33
2022-11-25T10:10:31.493Z,85.70
2022-11-25T10:12:59.736Z,85.71
2022-11-25T10:15:39.886Z,85.45
2022-11-25T10:18:17.337Z,85.21
2022-11-25T10:20:47.878Z,85.18
2022-11-25T10:23:27.799Z,85.21
2022-11-25T10:26:01.851Z,85.22
2022-11-25T10:28:32.495Z,85.22
2022-11-25T10:31:16.667Z,84.91
2022-11-25T10:33:50.818Z,84.22
2022-11-25T10:36:30.458Z,84.46
2022-11-25T10:39:05.200Z,84.58
2022-11-25T10:41:43.532Z,84.83
2022-11-25T10:44:25.891Z,84.76
2022-11-25T10:47:18.865Z,84.39
2022-11-25T10:49:49.984Z,83.75
2022-11-25T10:52:21.058Z,84.32
2022-11-25T10:55:15.612Z,84.54
2022-11-25T10:57:44.235Z,84.22
2022-11-25T11:00:27.833Z,84.17
2022-11-25T11:03:00.363Z,84.15
2022-11-25T11:05:32.714Z,83.99
2022-11-25T11:08:09.315Z,84.13
2022-11-25T11:10:39.417Z,84.07
2022-11-25T11:13:33.499Z,84.54
2022-11-25T11:16:01.738Z,84.47
2022-11-25T11:18:39.014Z,84.15
2022-11-25T11:21:21.454Z,84.32
2022-11-25T11:23:53.067Z,84.32
2022-11-25T11:26:29.039Z,83.99
2022-11-25T11:29:15.346Z,83.43
2022-11-25T11:31:59.516Z,83.42
2022-11-25T11:34:52.865Z,83.87
2022-11-25T11:37:46.449Z,83.93
2022-11-25T11:40:32.372Z,83.85
2022-11-25T11:43:36.277Z,83.22
2022-11-25T11:46:15.578Z,83.35
2022-11-25T11:49:00.335Z,83.53
2022-11-25T11:51:58.434Z,83.22
2022-11-25T11:54:46.373Z,83.02
2022-11-25T11:57:33.527Z,83.16
2022-11-25T12:00:06.450Z,83.42
2022-11-25T12:02:58.406Z,83.81
2022-11-25T12:05:30.032Z,83.43
2022-11-25T12:08:06.371Z,83.48
2022-11-25T12:10:37.961Z,83.39
2022-11-25T12:13:15.365Z,83.87
2022-11-25T12:15:48.508Z,84.06
2022-11-25T12:18:29.320Z,84.21
2022-11-25T12:21:22.907Z,84.75
2022-11-25T12:24:04.293Z,84.41
2022-11-25T12:26:43.470Z,84.59
2022-11-25T12:29:40.000Z,84.50
2022-11-25T12:32:17.830Z,84.54
2022-11-25T12:34:56.907Z,84.55
2022-11-25T12:37:46.996Z,84.88
2022-11-25T12:40:25.945Z,85.26
2022-11-25T12:43:01.196Z,85.63
2022-11-25T12:45:29.820Z,85.48
2022-11-25T12:47:57.947Z,85.46
2022-11-25T12:50:37.722Z,85.14
2022-11-25T12:53:15.362Z,85.37
2022-11-25T12:55:43.769Z,85.54
2022-11-25T12:58:26.968Z,85.30
2022-11-25T13:01:26.395Z,85.32
2022-11-25T13:04:07.067Z,85.31
2022-11-25T13:06:41.308Z,85.59
2022-11-25T13:09:54.436Z,85.88
2022-11-25T13:12:43.813Z,85.56
2022-11-25T13:15:21.070Z,85.66
2022-11-25T13:17:51.774Z,85.72
2022-11-25T13:20:29.855Z,85.72
2022-11-25T13:23:09.976Z,85.79
2022-11-25T13:25:40.768Z,85.96
2022-11-25T13:28:31.120Z,85.91
2022-11-25T13:31:14.806Z,85.92
2022-11-25T13:33:43.250Z,86.10
2022-11-25T13:36:21.934Z,86.13
2022-11-25T13:38:50.288Z,86.13
2022-11-25T13:41:21.937Z,85.93
2022-11-25T13:44:02.009Z,85.82
2022-11-25T13:46:39.810Z,86.06
2022-11-25T13:49:24.046Z,86.12
2022-11-25T13:51:55.945Z,86.09
2022-11-25T13:54:39.581Z,86.18
2022-11-25T13:57:13.741Z,85.91
2022-11-25T13:59:42.024Z,85.93
2022-11-25T14:02:31.129Z,85.76
2022-11-25T14:05:05.723Z,85.86
2022-11-25T14:07:43.038Z,85.83
2022-11-25T14:10:11.367Z,85.82
2022-11-25T14:13:07.059Z,85.88
2022-11-25T14:16:10.921Z,85.90
2022-11-25T14:19:35.261Z,86.17
2022-11-25T14:22:00.711Z,86.54
2022-11-25T14:24:43.241Z,86.36
2022-11-25T14:27:22.723Z,86.16
2022-11-25T14:29:54.566Z,86.21
2022-11-25T14:32:36.980Z,86.26
2022-11-25T14:35:10.399Z,86.15
2022-11-25T14:37:46.063Z,86.46
2022-11-25T14:40:36.479Z,86.47
2022-11-25T14:43:08.945Z,86.42
2022-11-25T14:45:37.660Z,86.42
2022-11-25T14:48:18.733Z,86.41
2022-11-25T14:51:02.037Z,86.50
2022-11-25T14:53:31.263Z,86.52
2022-11-25T14:56:01.411Z,86.99
2022-11-25T14:58:30.873Z,87.18
2022-11-25T15:01:06.142Z,87.20
2022-11-25T15:03:34.375Z,87.23
2022-11-25T15:06:06.427Z,86.98
2022-11-25T15:08:46.679Z,86.64
2022-11-25T15:11:19.603Z,86.39
2022-11-25T15:13:58.045Z,86.50
2022-11-25T15:16:32.621Z,86.70
2022-11-25T15:19:04.201Z,86.86
2022-11-25T15:21:53.924Z,86.63
2022-11-25T15:24:51.593Z,86.50
2022-11-25T15:27:28.596Z,86.65
2022-11-25T15:29:57.900Z,86.79
2022-11-25T15:32:29.029Z,86.81
2022-11-25T15:34:59.695Z,86.77
2022-11-25T15:37:28.941Z,86.79
2022-11-25T15:40:40.830Z,86.69
2022-11-25T15:43:27.523Z,86.77
2022-11-25T15:46:00.670Z,86.98
2022-11-25T15:48:58.408Z,86.94
2022-11-25T15:51:32.538Z,87.10
2022-11-25T15:54:32.176Z,87.20
2022-11-25T15:57:12.351Z,86.97
2022-11-25T16:00:02.271Z,86.93
2022-11-25T16:02:43.623Z,86.81
2022-11-25T16:05:15.133Z,86.95
2022-11-25T16:07:52.619Z,86.91
2022-11-25T16:10:28.939Z,86.65
2022-11-25T16:13:26.144Z,87.13
2022-11-25T16:16:15.945Z,87.29
2022-11-25T16:18:53.700Z,87.55
2022-11-25T16:21:24.983Z,87.44
2022-11-25T16:24:27.884Z,87.45
2022-11-25T16:27:16.643Z,87.45
2022-11-25T16:29:51.544Z,87.63
2022-11-25T16:32:22.686Z,87.94
2022-11-25T16:34:51.564Z,88.10
2022-11-25T16:37:19.802Z,88.33
2022-11-25T16:39:48.015Z,88.50
2022-11-25T16:42:19.752Z,88.14
2022-11-25T16:44:51.073Z,88.13
2022-11-25T16:47:20.791Z,87.86
2022-11-25T16:49:49.164Z,87.56
2022-11-25T16:52:18.028Z,87.56
2022-11-25T16:54:47.527Z,87.52
2022-11-25T16:57:22.158Z,87.57
2022-11-25T16:59:57.219Z,87.48
2022-11-25T17:02:27.173Z,87.54
2022-11-25T17:04:57.611Z,87.91
2022-11-25T17:07:33.902Z,88.18
2022-11-25T17:10:02.929Z,88.25
2022-11-25T17:12:34.454Z,88.19
2022-11-25T17:15:06.587Z,88.02
2022-11-25T17:17:35.154Z,87.86
2022-11-25T17:20:04.111Z,87.83
2022-11-25T17:22:38.784Z,87.62
2022-11-25T17:25:08.263Z,87.57
2022-11-25T17:27:36.804Z,87.46
2022-11-25T17:30:07.752Z,87.59
2022-11-25T17:32:35.980Z,87.84
2022-11-25T17:35:04.803Z,88.00
2022-11-25T17:37:33.069Z,88.08
2022-11-25T17:40:04.231Z,88.22
2022-11-25T17:42:32.745Z,88.28
2022-11-25T17:45:00.937Z,88.15
2022-11-25T17:47:29.180Z,88.21
2022-11-25T17:49:58.001Z,88.35
2022-11-25T17:52:26.157Z,88.52
2022-11-25T17:54:54.436Z,88.58
2022-11-25T17:57:23.428Z,88.73
2022-11-25T17:59:51.556Z,88.49
2022-11-25T18:02:22.089Z,88.48
2022-11-25T18:04:50.512Z,88.53
2022-11-25T18:07:19.075Z,88.43
2022-11-25T18:09:47.357Z,88.27
2022-11-25T18:12:30.887Z,88.33
2022-11-25T18:14:59.462Z,88.76
2022-11-25T18:17:27.715Z,89.02
2022-11-25T18:19:56.641Z,89.01
2022-11-25T18:22:24.886Z,89.04
2022-11-25T18:24:53.494Z,89.02
2022-11-25T18:27:31.238Z,88.95
2022-11-25T18:30:01.523Z,89.38
2022-11-25T18:32:29.685Z,89.62
2022-11-25T18:34:57.910Z,89.90
2022-11-25T18:37:26.246Z,89.81
2022-11-25T18:39:54.407Z,90.03
2022-11-25T18:42:27.397Z,89.89
2022-11-25T18:44:56.371Z,89.82
2022-11-25T18:47:24.550Z,90.04
2022-11-25T18:49:56.138Z,90.18
2022-11-25T18:52:25.189Z,90.18
2022-11-25T18:54:53.491Z,90.35
2022-11-25T18:57:21.781Z,90.44
2022-11-25T19:00:10.357Z,90.03
2022-11-25T19:02:38.774Z,89.96
2022-11-25T19:05:19.336Z,89.72
2022-11-25T19:07:49.314Z,89.70
2022-11-25T19:10:17.636Z,89.79
2022-11-25T19:12:49.845Z,89.93
2022-11-25T19:15:20.944Z,89.69
2022-11-25T19:17:51.548Z,89.47
2022-11-25T19:20:23.359Z,89.42
2022-11-25T19:22:52.520Z,89.65
2022-11-25T19:25:23.195Z,89.74
2022-11-25T19:27:58.522Z,89.68
2022-11-25T19:30:31.124Z,89.67
2022-11-25T19:33:02.071Z,89.79
2022-11-25T19:35:35.621Z,89.93
2022-11-25T19:38:31.116Z,90.01
2022-11-25T19:40:59.469Z,90.09
2022-11-25T19:43:28.156Z,90.18
2022-11-25T19:45:57.967Z,90.25
2022-11-25T19:48:29.615Z,90.49
2022-11-25T19:51:02.348Z,90.80
2022-11-25T19:53:34.062Z,90.95
2022-11-25T19:56:04.802Z,90.91
2022-11-25T19:58:33.219Z,91.18
2022-11-25T20:01:06.126Z,91.18
2022-11-25T20:03:34.930Z,90.97
2022-11-25T20:06:04.860Z,91.11
2022-11-25T20:08:33.115Z,91.04
2022-11-25T20:11:01.346Z,90.72
2022-11-25T20:13:29.533Z,90.74
2022-11-25T20:15:59.109Z,90.73
2022-11-25T20:18:27.643Z,90.67
2022-11-25T20:21:03.101Z,90.58
2022-11-25T20:23:41.803Z,90.54
2022-11-25T20:26:32.215Z,90.64
2022-11-25T20:29:00.324Z,90.65
2022-11-25T20:31:31.305Z,90.74
2022-11-25T20:33:59.522Z,90.73
2022-11-25T20:36:32.444Z,90.76
2022-11-25T20:39:02.928Z,91.05
2022-11-25T20:41:33.292Z,91.30
2022-11-25T20:44:01.821Z,91.24
2022-11-25T20:46:30.384Z,91.14
2022-11-25T20:49:02.055Z,91.02
2022-11-25T20:51:30.349Z,90.95
2022-11-25T20:54:03.130Z,91.12
2022-11-25T20:56:31.292Z,91.17
2022-11-25T20:58:59.439Z,91.29
2022-11-25T21:01:28.011Z,91.44
2022-11-25T21:03:56.400Z,91.40
2022-11-25T21:06:30.050Z,91.05
2022-11-25T21:09:01.250Z,90.86
2022-11-25T21:11:33.122Z,90.73
2022-11-25T21:14:01.569Z,90.70
2022-11-25T21:16:29.861Z,90.63
2022-11-25T21:18:58.159Z,90.46
2022-11-25T21:21:32.138Z,90.01
2022-11-25T21:24:25.775Z,89.75
2022-11-25T21:26:55.350Z,89.45
2022-11-25T21:29:23.726Z,89.63
2022-11-25T21:31:51.955Z,89.57
2022-11-25T21:34:20.161Z,89.59
2022-11-25T21:36:51.779Z,89.38
2022-11-25T21:39:26.454Z,89.31
2022-11-25T21:41:55.734Z,89.41
2022-11-25T21:44:32.194Z,89.53
2022-11-25T21:47:00.732Z,89.83
2022-11-25T21:49:29.343Z,89.91
2022-11-25T21:51:57.588Z,89.97
2022-11-25T21:54:25.796Z,90.07
2022-11-25T21:56:54.068Z,90.00
2022-11-25T21:59:22.442Z,89.90
2022-11-25T22:01:51.083Z,90.10
2022-11-25T22:04:21.014Z,90.17
2022-11-25T22:06:51.136Z,90.14
2022-11-25T22:09:19.636Z,90.25
2022-11-25T22:11:50.459Z,90.08
2022-11-25T22:14:29.122Z,90.34
2022-11-25T22:16:57.639Z,90.35
2022-11-25T22:19:27.828Z,90.70
2022-11-25T22:21:56.436Z,90.75
2022-11-25T22:24:24.702Z,90.41
2022-11-25T22:26:57.708Z,90.36
2022-11-25T22:29:32.708Z,90.43
2022-11-25T22:32:01.921Z,90.53
2022-11-25T22:34:31.166Z,90.71
2022-11-25T22:36:59.422Z,91.13
2022-11-25T22:39:27.937Z,91.20
2022-11-25T22:42:07.167Z,91.05
2022-11-25T22:44:37.677Z,91.20
2022-11-25T22:47:08.013Z,90.88
2022-11-25T22:49:43.108Z,90.51
2022-11-25T22:52:34.058Z,90.30
2022-11-25T22:55:24.204Z,90.53
2022-11-25T22:57:54.702Z,90.60
2022-11-25T23:00:32.892Z,90.65
2022-11-25T23:03:04.838Z,90.53
2022-11-25T23:05:39.655Z,90.48
2022-11-25T23:08:23.314Z,90.48
2022-11-25T23:10:52.802Z,90.26
2022-11-25T23:13:21.741Z,90.07
2022-11-25T23:15:55.813Z,89.75
2022-11-25T23:18:42.984Z,89.46
2022-11-25T23:21:23.707Z,89.37
2022-11-25T23:23:52.561Z,89.34
2022-11-25T23:29:06.453Z,89.11
2022-11-25T23:31:36.519Z,89.36
2022-11-25T23:34:07.010Z,89.26
2022-11-25T23:36:45.464Z,89.32
2022-11-25T23:39:22.284Z,89.48
2022-11-25T23:41:51.278Z,89.43
2022-11-25T23:44:25.860Z,89.48
2022-11-25T23:46:59.365Z,89.65
2022-11-25T23:49:37.838Z,89.62
2022-11-25T23:52:08.522Z,89.57
2022-11-25T23:54:42.010Z,89.74
2022-11-25T23:57:24.595Z,89.82
2022-11-25T23:59:53.061Z,89.84
